Latest Weather Observations for Pound Creek

IDV60801

Issued at 8:02 pm EDT Sunday 26 March 2017 (issued every 30 minutes, with the page automatically refreshed every 10 minutes)

About weather observations | Map of weather stations | Latest weather observations for VIC | Other Formats
Station Details ID: 085099 Name: POUND CREEK Lat: -38.63 Lon: 145.81 Height: 3.0 m
Data from the previous 72 hours. | See also: Recent months at Pound Creek
Date/Time
EDT
Temp
°C
App
Temp
°C
Dew
Point
°C
Rel
Hum
%
Delta-T
°C
Wind Press
QNH
hPa
Press
MSL
hPa
Rain since
9am
mm
Dir  Spd
km/h
Gust
km/h
Spd
kts
Gust
kts
26/08:00pm 19.3 17.9 12.1 63 4.0 ESE 11 15 6 8 1012.3 1012.3 0.0
26/07:30pm 20.0 18.4 12.7 63 4.1 E 13 17 7 9 1012.2 1012.2 0.0
26/07:00pm 20.9 20.0 13.6 63 4.2 SE 11 15 6 8 1012.2 1012.2 0.0
26/06:30pm 21.9 21.3 14.5 63 4.3 SE 11 17 6 9 1012.3 1012.3 0.0
26/06:00pm 21.7 20.3 14.4 63 4.3 S 15 20 8 11 1012.3 1012.3 0.0
26/05:30pm 21.4 18.9 14.1 63 4.2 S 20 22 11 12 1012.3 1012.3 0.0
26/05:00pm 22.0 20.3 14.6 63 4.4 SSW 17 22 9 12 1012.3 1012.3 0.0
26/04:30pm 22.3 20.7 14.9 63 4.4 S 17 22 9 12 1012.4 1012.4 0.0
26/04:00pm 22.3 20.3 14.9 63 4.4 S 19 24 10 13 1012.6 1012.6 0.0
26/03:30pm 22.4 20.8 15.0 63 4.4 SSW 17 20 9 11 1012.9 1012.9 0.0
26/03:00pm 22.5 20.9 15.1 63 4.4 SSW 17 19 9 10 1013.0 1013.0 0.0
26/02:30pm 22.5 21.7 15.1 63 4.4 SSW 13 19 7 10 1013.2 1013.2 0.0
26/02:00pm 22.7 22.3 15.3 63 4.4 SSW 11 15 6 8 1013.6 1013.6 0.0
26/01:30pm 22.4 21.9 15.0 63 4.4 S 11 15 6 8 1014.1 1014.1 0.0
26/01:00pm 22.1 21.9 14.7 63 4.4 SSW 9 11 5 6 1014.7 1014.7 0.0
26/12:30pm 22.1 22.3 14.7 63 4.4 SSW 7 11 4 6 1015.1 1015.1 0.0
26/12:00pm 21.4 21.0 14.1 63 4.2 S 9 13 5 7 1015.5 1015.5 0.0
26/11:30am 21.0 20.8 13.7 63 4.2 SW 7 11 4 6 1015.8 1015.8 0.0
26/11:00am 21.7 22.4 14.4 63 4.3 NW 4 6 2 3 1015.8 1015.8 0.0
26/10:30am 20.4 20.6 13.1 63 4.2 SE 4 6 2 3 1016.0 1016.0 0.0
26/10:00am 19.8 19.9 12.6 63 4.0 SE 4 7 2 4 1015.7 1015.7 0.0
26/09:30am 19.1 19.3 11.9 63 4.0 W 2 4 1 2 1015.5 1015.5 0.0
26/09:00am 18.7 18.8 11.5 63 3.9 W 2 2 1 1 1015.4 1015.4 0.0
26/08:30am 18.1 17.7 11.0 63 3.8 W 4 4 2 2 1015.2 1015.2 0.0
26/08:00am 18.1 18.1 11.0 63 3.8 WNW 2 4 1 2 1015.0 1015.0 0.0
26/07:30am 17.9 17.4 10.8 63 3.8 NW 4 6 2 3 1014.9 1014.9 0.0
26/07:00am 17.9 18.2 10.8 63 3.8 CALM 0 2 0 1 1014.4 1014.4 0.0
26/06:30am 18.1 18.1 11.0 63 3.8 WNW 2 4 1 2 1014.2 1014.2 0.0
26/06:00am 18.1 17.7 11.0 63 3.8 W 4 6 2 3 1014.0 1014.0 0.0
26/05:30am 18.2 17.2 11.0 63 3.9 W 7 11 4 6 1013.8 1013.8 0.0
26/05:00am 18.2 17.2 11.0 63 3.9 WSW 7 9 4 5 1013.4 1013.4 0.0
26/04:30am 18.3 17.3 11.1 63 3.9 W 7 13 4 7 1013.5 1013.5 0.0
26/04:00am 18.2 16.8 11.0 63 3.9 WSW 9 11 5 6 1013.5 1013.5 0.0
26/03:30am 18.3 17.0 11.1 63 3.9 W 9 13 5 7 1013.6 1013.6 0.0
26/03:00am 18.0 17.2 10.9 63 3.8 WNW 6 9 3 5 1013.6 1013.6 0.0
26/02:30am 17.9 16.8 10.8 63 3.8 W 7 9 4 5 1013.8 1013.8 0.0
26/02:00am 17.3 15.7 10.2 63 3.8 W 9 11 5 6 1013.8 1013.8 0.0
26/01:30am 17.4 16.4 10.3 63 3.8 WNW 6 9 3 5 1013.8 1013.8 0.0
26/01:00am 16.9 15.8 9.8 63 3.7 WNW 6 9 3 5 1013.8 1013.8 0.0
26/12:30am 17.7 16.8 10.6 63 3.8 NW 6 9 3 5 1013.7 1013.7 0.0
26/12:00am 17.6 16.7 10.5 63 3.8 NNW 6 7 3 4 1013.7 1013.7 0.0
 
Date/Time
EDT
Temp
°C
App
Temp
°C
Dew
Point
°C
Rel
Hum
%
Delta-T
°C
Wind Press
QNH
hPa
Press
MSL
hPa
Rain since
9am
mm
Dir  Spd
km/h
Gust
km/h
Spd
kts
Gust
kts
25/11:30pm 18.3 18.3 11.1 63 3.9 NW 2 6 1 3 1013.7 1013.7 0.0
25/11:00pm 18.5 17.8 11.3 63 3.9 NNW 6 6 3 3 1013.8 1013.8 0.0
25/10:30pm 18.6 17.9 11.4 63 3.9 W 6 7 3 4 1013.4 1013.4 0.0
25/10:00pm 17.7 16.6 10.6 63 3.8 WSW 7 13 4 7 1013.3 1013.3 0.0
25/09:30pm 18.2 17.4 11.0 63 3.9 NNW 6 7 3 4 1013.1 1013.1 0.0
25/09:00pm 19.1 18.6 11.9 63 4.0 N 6 6 3 3 1012.6 1012.6 0.0
25/08:30pm 19.7 19.7 12.5 63 4.0 NNW 4 6 2 3 1012.1 1012.1 0.0
25/08:00pm 20.0 20.1 12.7 63 4.1 SW 4 6 2 3 1011.7 1011.7 0.0
25/07:30pm 21.4 21.9 14.1 63 4.2 SSW 4 4 2 2 1011.4 1011.4 0.0
25/07:00pm 22.9 24.0 15.5 63 4.4 SSW 4 6 2 3 1011.1 1011.1 0.0
25/06:30pm 23.6 24.5 16.1 62 4.6 SSW 6 7 3 4 1010.9 1010.9 0.0
25/06:00pm 24.0 24.5 16.5 63 4.6 SSW 9 15 5 8 1010.8 1010.8 0.0
25/05:30pm 25.4 25.3 17.8 62 4.8 SSW 15 19 8 10 1010.7 1010.7 0.0
25/05:00pm 26.2 26.8 18.6 63 4.8 SSW 13 15 7 8 1010.6 1010.6 0.0
25/04:30pm 26.7 27.9 19.1 63 4.9 SSW 11 15 6 8 1010.6 1010.6 0.0
25/04:00pm 27.4 28.5 19.7 63 5.0 SSW 13 19 7 10 1010.6 1010.6 0.0
25/03:30pm 27.7 28.2 20.0 63 5.0 SW 17 22 9 12 1010.8 1010.8 0.0
25/03:00pm 27.6 27.7 19.9 63 5.0 SW 19 24 10 13 1010.8 1010.8 0.0
25/02:30pm 27.0 28.0 19.4 63 4.9 SW 13 19 7 10 1011.1 1011.1 0.0
25/02:00pm 26.7 27.1 19.1 63 4.9 SW 15 20 8 11 1011.3 1011.3 0.0
25/01:30pm 27.7 28.9 20.0 63 5.0 WNW 13 20 7 11 1011.4 1011.4 0.0
25/01:00pm 27.7 28.6 20.0 63 5.0 NW 15 22 8 12 1011.6 1011.6 0.0
25/12:30pm 26.1 26.7 18.5 63 4.8 NW 13 20 7 11 1012.1 1012.1 0.0
25/12:00pm 24.5 25.6 17.0 63 4.6 NE 7 11 4 6 1012.6 1012.6 0.0
25/11:30am 23.1 23.8 15.7 63 4.5 NNE 6 11 3 6 1012.9 1012.9 0.0
25/11:00am 22.7 23.3 15.3 63 4.4 ENE 6 7 3 4 1013.0 1013.0 0.0
25/10:30am 20.4 20.2 13.1 63 4.2 ENE 6 7 3 4 1013.2 1013.2 0.0
25/10:00am 19.6 20.0 12.4 63 4.0 ENE 2 4 1 2 1013.1 1013.1 0.0
25/09:30am 18.4 18.0 11.2 63 3.9 ESE 4 6 2 3 1013.1 1013.1 0.0
25/09:00am 17.4 17.5 10.3 63 3.8 CALM 0 0 0 0 1012.9 1012.9 0.0
25/08:30am 17.0 16.6 9.9 63 3.7 NE 2 4 1 2 1012.6 1012.6 0.0
25/08:00am 16.5 16.4 9.4 63 3.7 CALM 0 0 0 0 1012.4 1012.4 0.0
25/07:30am 16.4 16.3 9.3 63 3.7 CALM 0 0 0 0 1012.3 1012.3 0.0
25/07:00am 16.3 16.2 9.3 63 3.6 CALM 0 0 0 0 1012.1 1012.1 0.0
25/06:30am 16.2 16.0 9.2 63 3.6 CALM 0 0 0 0 1012.1 1012.1 0.0
25/06:00am 16.2 15.7 9.2 63 3.6 NE 2 4 1 2 1012.2 1012.2 0.0
25/05:30am 16.3 15.0 9.3 63 3.6 NE 6 11 3 6 1012.1 1012.1 0.0
25/05:00am 16.4 15.1 9.3 63 3.7 ENE 6 7 3 4 1012.0 1012.0 0.0
25/04:30am 16.7 15.5 9.6 63 3.7 E 6 7 3 4 1012.1 1012.1 0.0
25/04:00am 16.5 15.1 9.4 63 3.7 NE 7 11 4 6 1012.2 1012.2 0.0
25/03:30am 16.7 14.9 9.6 63 3.7 ENE 9 15 5 8 1013.0 1013.0 0.0
25/03:00am 16.6 14.8 9.5 63 3.7 NE 9 15 5 8 1013.4 1013.4 0.0
25/02:30am 16.3 15.0 9.3 63 3.6 ENE 6 11 3 6 1014.3 1014.3 0.0
25/02:00am 16.3 15.0 9.3 63 3.6 E 6 9 3 5 1014.7 1014.7 0.0
25/01:30am 16.2 14.9 9.2 63 3.6 E 6 9 3 5 1014.7 1014.7 0.0
25/01:00am 16.0 14.5 9.0 63 3.6 E 7 9 4 5 1014.8 1014.8 0.0
25/12:30am 16.4 14.9 9.3 63 3.7 ENE 7 11 4 6 1015.3 1015.3 0.0
25/12:00am 16.6 14.8 9.5 63 3.7 ENE 9 15 5 8 1015.5 1015.5 0.0
 
Date/Time
EDT
Temp
°C
App
Temp
°C
Dew
Point
°C
Rel
Hum
%
Delta-T
°C
Wind Press
QNH
hPa
Press
MSL
hPa
Rain since
9am
mm
Dir  Spd
km/h
Gust
km/h
Spd
kts
Gust
kts
24/11:30pm 16.8 14.7 9.7 63 3.7 ENE 11 15 6 8 1015.9 1015.9 0.0
24/11:00pm 16.7 14.6 9.6 63 3.7 E 11 15 6 8 1016.0 1016.0 0.0
24/10:30pm 16.9 14.8 9.8 63 3.7 ENE 11 17 6 9 1016.1 1016.1 0.0
24/10:00pm 17.0 15.3 9.9 63 3.7 ENE 9 13 5 7 1016.5 1016.5 0.0
24/09:30pm 17.2 15.2 10.1 63 3.8 ENE 11 19 6 10 1016.5 1016.5 0.0
24/09:00pm 17.5 15.6 10.4 63 3.8 ENE 11 19 6 10 1016.7 1016.7 0.0
24/08:30pm 17.7 15.4 10.6 63 3.8 ENE 13 17 7 9 1016.6 1016.6 0.0
24/08:00pm 18.0 15.5 10.9 63 3.8 ENE 15 20 8 11 1016.6 1016.6 0.0
24/07:30pm 18.2 15.7 11.0 63 3.9 E 15 20 8 11 1017.0 1017.0 0.0
24/07:00pm 18.8 15.7 11.6 63 3.9 E 19 26 10 14 1016.7 1016.7 0.0
24/06:30pm 19.6 16.7 12.4 63 4.0 E 19 28 10 15 1016.6 1016.6 0.0
24/06:00pm 20.2 17.3 12.9 63 4.1 E 20 32 11 17 1016.4 1016.4 0.0
24/05:30pm 20.4 17.2 13.1 63 4.2 E 22 35 12 19 1016.3 1016.3 0.0
24/05:00pm 21.2 17.9 13.9 63 4.2 E 24 35 13 19 1016.4 1016.4 0.0
24/04:30pm 21.7 18.2 14.4 63 4.3 E 26 35 14 19 1016.3 1016.3 0.0
24/04:00pm 22.0 19.7 14.6 63 4.3 ENE 20 32 11 17 1016.6 1016.6 0.0
24/03:30pm 22.9 20.2 15.5 63 4.4 E 24 39 13 21 1017.0 1017.0 0.0
24/03:00pm 23.1 20.0 15.7 63 4.4 E 26 33 14 18 1017.4 1017.4 0.0
24/02:30pm 20.8 17.3 13.5 63 4.2 E 24 33 13 18 1018.0 1018.0 0.0
24/02:00pm 22.2 18.4 14.8 63 4.4 E 28 37 15 20 1018.4 1018.4 0.0
24/01:30pm 21.1 17.4 13.8 63 4.2 E 26 33 14 18 1019.3 1019.3 0.0
24/01:00pm 21.6 17.7 14.3 63 4.3 E 28 39 15 21 1019.8 1019.8 0.0
24/12:30pm 20.4 16.1 13.1 63 4.2 E 28 39 15 21 1020.3 1020.3 0.0
24/12:00pm 21.3 17.3 14.0 63 4.2 E 28 37 15 20 1020.6 1020.6 0.0
24/11:30am 20.2 16.2 12.9 63 4.1 E 26 37 14 20 1021.1 1021.1 0.0
24/11:00am 19.2 14.9 12.0 63 4.0 E 26 35 14 19 1021.2 1021.2 0.0
24/10:30am 18.7 13.9 11.5 63 3.9 E 28 43 15 23 1021.0 1021.0 0.0
24/10:00am 18.5 14.0 11.3 63 3.9 E 26 35 14 19 1021.2 1021.2 0.0
24/09:30am 18.0 13.0 10.9 63 3.8 E 28 41 15 22 1020.8 1020.8 0.0
24/09:00am 17.1 12.6 10.0 63 3.7 E 24 32 13 17 1020.7 1020.7 0.0
24/08:30am 17.1 14.3 10.0 63 3.7 E 15 22 8 12 1020.7 1020.7 0.0
24/08:00am 14.3 12.0 7.4 63 3.4 E 9 17 5 9 1020.5 1020.5 0.0
24/07:30am 13.6 11.7 6.7 63 3.3 ENE 6 9 3 5 1020.5 1020.5 0.0
24/07:00am 13.5 11.4 6.6 63 3.3 ENE 7 7 4 4 1020.1 1020.1 0.0
24/06:30am 14.0 11.6 7.1 63 3.4 ENE 9 17 5 9 1019.8 1019.8 0.0
24/06:00am 14.4 12.5 7.5 63 3.4 E 7 11 4 6 1019.8 1019.8 0.0
24/05:30am 14.2 11.9 7.3 63 3.4 ENE 9 13 5 7 1019.7 1019.7 0.0
24/05:00am 14.8 12.6 7.8 63 3.5 ENE 9 15 5 8 1020.1 1020.1 0.0
24/04:30am 14.7 11.7 7.7 63 3.5 E 13 19 7 10 1020.3 1020.3 0.0
24/04:00am 14.6 12.3 7.6 63 3.4 E 9 13 5 7 1021.0 1021.0 0.0
24/03:30am 14.5 11.5 7.5 63 3.5 ESE 13 17 7 9 1021.3 1021.3 0.0
24/03:00am 14.7 12.5 7.7 63 3.5 ESE 9 17 5 9 1021.5 1021.5 0.0
24/02:30am 14.9 12.3 7.9 63 3.5 ESE 11 13 6 7 1021.7 1021.7 0.0
24/02:00am 15.2 13.1 8.2 63 3.5 E 9 13 5 7 1021.5 1021.5 0.0
24/01:30am 15.6 12.1 8.6 63 3.6 E 17 26 9 14 1021.4 1021.4 0.0
24/01:00am 15.7 12.2 8.7 63 3.6 E 17 24 9 13 1021.3 1021.3 0.0
24/12:30am 15.4 12.9 8.4 63 3.5 ENE 11 15 6 8 1021.8 1021.8 0.0
24/12:00am 15.2 12.7 8.2 63 3.5 E 11 17 6 9 1022.2 1022.2 0.0
 
Date/Time
EDT
Temp
°C
App
Temp
°C
Dew
Point
°C
Rel
Hum
%
Delta-T
°C
Wind Press
QNH
hPa
Press
MSL
hPa
Rain since
9am
mm
Dir  Spd
km/h
Gust
km/h
Spd
kts
Gust
kts
23/11:30pm 15.2 12.3 8.2 63 3.5 E 13 19 7 10 1022.6 1022.6 0.0
23/11:00pm 15.0 12.5 8.0 63 3.5 ESE 11 15 6 8 1022.6 1022.6 0.0
23/10:30pm 15.8 13.1 8.8 63 3.6 E 13 19 7 10 1022.7 1022.7 0.0
23/10:00pm 15.5 14.4 8.5 63 3.5 ENE 4 6 2 3 1022.8 1022.8 0.0
23/09:30pm 16.1 13.4 9.1 63 3.6 E 13 19 7 10 1022.3 1022.3 0.0
23/09:00pm 16.4 14.2 9.3 63 3.7 E 11 17 6 9 1022.1 1022.1 0.0
23/08:30pm 17.0 13.4 9.9 63 3.7 E 19 24 10 13 1021.4 1021.4 0.0

Other Formats:

Comma delimited format used in spreadsheet applications
http://www.bom.gov.au/fwo/IDV60801/IDV60801.94886.axf

JavaScript Object Notation format (JSON) in row-major order
http://www.bom.gov.au/fwo/IDV60801/IDV60801.94886.json